sensor_id;sensor_type;location;lat;lon;timestamp;temperature;humidity
22635;DHT22;11484;50.858;4.384;2023-02-28T00:00:51;2.90;99.90
22635;DHT22;11484;50.858;4.384;2023-02-28T00:03:17;2.90;99.90
22635;DHT22;11484;50.858;4.384;2023-02-28T00:05:43;2.90;99.90
22635;DHT22;11484;50.858;4.384;2023-02-28T00:08:09;2.90;99.90
22635;DHT22;11484;50.858;4.384;2023-02-28T00:10:35;3.00;99.90
22635;DHT22;11484;50.858;4.384;2023-02-28T00:13:04;3.10;99.90
22635;DHT22;11484;50.858;4.384;2023-02-28T00:15:31;3.20;99.90
22635;DHT22;11484;50.858;4.384;2023-02-28T00:17:57;3.30;99.90
22635;DHT22;11484;50.858;4.384;2023-02-28T00:20:23;3.30;99.90
22635;DHT22;11484;50.858;4.384;2023-02-28T00:22:51;3.30;99.90
22635;DHT22;11484;50.858;4.384;2023-02-28T00:25:20;3.20;99.90
22635;DHT22;11484;50.858;4.384;2023-02-28T00:27:46;3.00;99.90
22635;DHT22;11484;50.858;4.384;2023-02-28T00:30:15;2.90;99.90
22635;DHT22;11484;50.858;4.384;2023-02-28T00:32:41;2.80;99.90
22635;DHT22;11484;50.858;4.384;2023-02-28T00:35:08;2.80;99.90
22635;DHT22;11484;50.858;4.384;2023-02-28T00:37:34;2.70;99.90
22635;DHT22;11484;50.858;4.384;2023-02-28T00:40:00;2.60;99.90
22635;DHT22;11484;50.858;4.384;2023-02-28T00:42:26;2.60;99.90
22635;DHT22;11484;50.858;4.384;2023-02-28T00:44:52;2.70;99.90
22635;DHT22;11484;50.858;4.384;2023-02-28T00:47:17;2.70;99.90
22635;DHT22;11484;50.858;4.384;2023-02-28T00:49:43;2.70;99.90
22635;DHT22;11484;50.858;4.384;2023-02-28T00:52:09;2.80;99.90
22635;DHT22;11484;50.858;4.384;2023-02-28T00:54:35;2.80;99.90
22635;DHT22;11484;50.858;4.384;2023-02-28T00:57:01;2.70;99.90
22635;DHT22;11484;50.858;4.384;2023-02-28T00:59:26;2.60;99.90
22635;DHT22;11484;50.858;4.384;2023-02-28T01:01:52;2.60;99.90
22635;DHT22;11484;50.858;4.384;2023-02-28T01:04:18;2.70;99.90
22635;DHT22;11484;50.858;4.384;2023-02-28T01:06:44;2.60;99.90
22635;DHT22;11484;50.858;4.384;2023-02-28T01:09:10;2.60;99.90
22635;DHT22;11484;50.858;4.384;2023-02-28T01:11:35;2.40;99.90
22635;DHT22;11484;50.858;4.384;2023-02-28T01:14:02;2.30;99.90
22635;DHT22;11484;50.858;4.384;2023-02-28T01:16:29;2.30;99.90
22635;DHT22;11484;50.858;4.384;2023-02-28T01:18:55;2.40;99.90
22635;DHT22;11484;50.858;4.384;2023-02-28T01:21:21;2.40;99.90
22635;DHT22;11484;50.858;4.384;2023-02-28T01:23:47;2.50;99.90
22635;DHT22;11484;50.858;4.384;2023-02-28T01:26:16;2.50;99.90
22635;DHT22;11484;50.858;4.384;2023-02-28T01:28:42;2.50;99.90
22635;DHT22;11484;50.858;4.384;2023-02-28T01:31:09;2.50;99.90
22635;DHT22;11484;50.858;4.384;2023-02-28T01:33:35;2.50;99.90
22635;DHT22;11484;50.858;4.384;2023-02-28T01:36:06;2.50;99.90
22635;DHT22;11484;50.858;4.384;2023-02-28T01:38:33;2.60;99.90
22635;DHT22;11484;50.858;4.384;2023-02-28T01:40:59;2.50;99.90
22635;DHT22;11484;50.858;4.384;2023-02-28T01:46:14;2.40;99.90
22635;DHT22;11484;50.858;4.384;2023-02-28T01:48:46;2.40;99.90
22635;DHT22;11484;50.858;4.384;2023-02-28T01:51:18;2.40;99.90
22635;DHT22;11484;50.858;4.384;2023-02-28T01:54:11;2.40;99.90
22635;DHT22;11484;50.858;4.384;2023-02-28T01:59:38;2.40;99.90
22635;DHT22;11484;50.858;4.384;2023-02-28T02:02:11;2.40;99.90
22635;DHT22;11484;50.858;4.384;2023-02-28T02:04:40;2.30;99.90
22635;DHT22;11484;50.858;4.384;2023-02-28T02:07:08;2.40;99.90
22635;DHT22;11484;50.858;4.384;2023-02-28T02:09:34;2.30;99.90
22635;DHT22;11484;50.858;4.384;2023-02-28T02:12:10;2.30;99.90
22635;DHT22;11484;50.858;4.384;2023-02-28T02:17:53;2.30;99.90
22635;DHT22;11484;50.858;4.384;2023-02-28T02:32:13;2.30;99.90
22635;DHT22;11484;50.858;4.384;2023-02-28T02:35:26;2.20;99.90
22635;DHT22;11484;50.858;4.384;2023-02-28T02:40:22;2.00;99.90
22635;DHT22;11484;50.858;4.384;2023-02-28T02:45:38;1.90;99.90
22635;DHT22;11484;50.858;4.384;2023-02-28T02:48:08;1.90;99.90
22635;DHT22;11484;50.858;4.384;2023-02-28T02:50:42;1.90;99.90
22635;DHT22;11484;50.858;4.384;2023-02-28T02:53:10;1.90;99.90
22635;DHT22;11484;50.858;4.384;2023-02-28T02:55:40;1.80;99.90
22635;DHT22;11484;50.858;4.384;2023-02-28T02:58:11;1.80;99.90
22635;DHT22;11484;50.858;4.384;2023-02-28T03:00:42;1.80;99.90
22635;DHT22;11484;50.858;4.384;2023-02-28T03:03:09;1.80;99.90
22635;DHT22;11484;50.858;4.384;2023-02-28T03:05:43;1.80;99.90
22635;DHT22;11484;50.858;4.384;2023-02-28T03:08:11;1.80;99.90
22635;DHT22;11484;50.858;4.384;2023-02-28T03:10:45;1.70;99.90
22635;DHT22;11484;50.858;4.384;2023-02-28T03:15:58;1.70;99.90
22635;DHT22;11484;50.858;4.384;2023-02-28T03:24:32;1.70;99.90
22635;DHT22;11484;50.858;4.384;2023-02-28T03:27:07;1.90;99.90
22635;DHT22;11484;50.858;4.384;2023-02-28T03:29:42;1.90;99.90
22635;DHT22;11484;50.858;4.384;2023-02-28T03:32:33;1.80;99.90
22635;DHT22;11484;50.858;4.384;2023-02-28T03:35:12;1.90;99.90
22635;DHT22;11484;50.858;4.384;2023-02-28T03:37:41;1.80;99.90
22635;DHT22;11484;50.858;4.384;2023-02-28T03:40:19;1.70;99.90
22635;DHT22;11484;50.858;4.384;2023-02-28T03:42:49;1.60;99.90
22635;DHT22;11484;50.858;4.384;2023-02-28T03:45:23;1.60;99.90
22635;DHT22;11484;50.858;4.384;2023-02-28T03:47:57;1.70;99.90
22635;DHT22;11484;50.858;4.384;2023-02-28T03:50:39;1.80;99.90
22635;DHT22;11484;50.858;4.384;2023-02-28T03:53:11;1.80;99.90
22635;DHT22;11484;50.858;4.384;2023-02-28T03:55:43;1.80;99.90
22635;DHT22;11484;50.858;4.384;2023-02-28T04:01:08;1.90;99.90
22635;DHT22;11484;50.858;4.384;2023-02-28T04:03:38;2.00;99.90
22635;DHT22;11484;50.858;4.384;2023-02-28T04:06:07;2.00;99.90
22635;DHT22;11484;50.858;4.384;2023-02-28T04:08:33;1.90;99.90
22635;DHT22;11484;50.858;4.384;2023-02-28T04:11:04;1.90;99.90
22635;DHT22;11484;50.858;4.384;2023-02-28T04:13:32;1.90;99.90
22635;DHT22;11484;50.858;4.384;2023-02-28T04:15:57;1.90;99.90
22635;DHT22;11484;50.858;4.384;2023-02-28T04:18:23;2.00;99.90
22635;DHT22;11484;50.858;4.384;2023-02-28T04:20:49;2.00;99.90
22635;DHT22;11484;50.858;4.384;2023-02-28T04:23:14;2.00;99.90
22635;DHT22;11484;50.858;4.384;2023-02-28T04:25:40;2.10;99.90
22635;DHT22;11484;50.858;4.384;2023-02-28T04:28:06;2.00;99.90
22635;DHT22;11484;50.858;4.384;2023-02-28T04:30:32;2.00;99.90
22635;DHT22;11484;50.858;4.384;2023-02-28T04:32:58;2.00;99.90
22635;DHT22;11484;50.858;4.384;2023-02-28T04:35:24;2.00;99.90
22635;DHT22;11484;50.858;4.384;2023-02-28T04:37:49;2.00;99.90
22635;DHT22;11484;50.858;4.384;2023-02-28T04:40:15;2.10;99.90
22635;DHT22;11484;50.858;4.384;2023-02-28T04:42:41;2.00;99.90
22635;DHT22;11484;50.858;4.384;2023-02-28T04:45:07;1.90;99.90
22635;DHT22;11484;50.858;4.384;2023-02-28T04:47:36;1.70;99.90
22635;DHT22;11484;50.858;4.384;2023-02-28T04:50:02;1.70;99.90
22635;DHT22;11484;50.858;4.384;2023-02-28T04:52:29;1.70;99.90
22635;DHT22;11484;50.858;4.384;2023-02-28T04:54:55;1.60;99.90
22635;DHT22;11484;50.858;4.384;2023-02-28T04:57:20;1.60;99.90
22635;DHT22;11484;50.858;4.384;2023-02-28T04:59:46;1.60;99.90
22635;DHT22;11484;50.858;4.384;2023-02-28T05:02:12;1.70;99.90
22635;DHT22;11484;50.858;4.384;2023-02-28T05:04:37;1.70;99.90
22635;DHT22;11484;50.858;4.384;2023-02-28T05:07:03;1.80;99.90
22635;DHT22;11484;50.858;4.384;2023-02-28T05:09:29;1.90;99.90
22635;DHT22;11484;50.858;4.384;2023-02-28T05:11:55;1.90;99.90
22635;DHT22;11484;50.858;4.384;2023-02-28T05:14:21;2.00;99.90
22635;DHT22;11484;50.858;4.384;2023-02-28T05:16:47;2.20;99.90
22635;DHT22;11484;50.858;4.384;2023-02-28T05:19:12;2.30;99.90
22635;DHT22;11484;50.858;4.384;2023-02-28T05:21:51;2.30;99.90
22635;DHT22;11484;50.858;4.384;2023-02-28T05:24:18;2.40;99.90
22635;DHT22;11484;50.858;4.384;2023-02-28T05:26:52;2.30;99.90
22635;DHT22;11484;50.858;4.384;2023-02-28T05:29:18;2.20;99.90
22635;DHT22;11484;50.858;4.384;2023-02-28T05:31:44;2.20;99.90
22635;DHT22;11484;50.858;4.384;2023-02-28T05:34:10;2.20;99.90
22635;DHT22;11484;50.858;4.384;2023-02-28T05:36:38;2.30;99.90
22635;DHT22;11484;50.858;4.384;2023-02-28T05:39:05;2.40;99.90
22635;DHT22;11484;50.858;4.384;2023-02-28T05:41:31;2.30;99.90
22635;DHT22;11484;50.858;4.384;2023-02-28T05:43:57;2.10;99.90
22635;DHT22;11484;50.858;4.384;2023-02-28T05:46:25;2.10;99.90
22635;DHT22;11484;50.858;4.384;2023-02-28T05:48:50;2.10;99.90
22635;DHT22;11484;50.858;4.384;2023-02-28T05:51:17;2.10;99.90
22635;DHT22;11484;50.858;4.384;2023-02-28T05:53:43;2.00;99.90
22635;DHT22;11484;50.858;4.384;2023-02-28T05:56:09;1.90;99.90
22635;DHT22;11484;50.858;4.384;2023-02-28T05:58:35;1.80;99.90
22635;DHT22;11484;50.858;4.384;2023-02-28T06:01:18;1.70;99.90
22635;DHT22;11484;50.858;4.384;2023-02-28T06:03:44;1.70;99.90
22635;DHT22;11484;50.858;4.384;2023-02-28T06:06:10;1.70;99.90
22635;DHT22;11484;50.858;4.384;2023-02-28T06:08:35;1.80;99.90
22635;DHT22;11484;50.858;4.384;2023-02-28T06:11:04;2.00;99.90
22635;DHT22;11484;50.858;4.384;2023-02-28T06:13:30;2.10;99.90
22635;DHT22;11484;50.858;4.384;2023-02-28T06:15:56;2.10;99.90
22635;DHT22;11484;50.858;4.384;2023-02-28T06:18:21;2.20;99.90
22635;DHT22;11484;50.858;4.384;2023-02-28T06:20:54;2.40;99.90
22635;DHT22;11484;50.858;4.384;2023-02-28T06:23:20;2.50;99.90
22635;DHT22;11484;50.858;4.384;2023-02-28T06:25:46;2.50;99.90
22635;DHT22;11484;50.858;4.384;2023-02-28T06:28:12;2.60;99.90
22635;DHT22;11484;50.858;4.384;2023-02-28T06:30:38;2.50;99.90
22635;DHT22;11484;50.858;4.384;2023-02-28T06:33:04;2.50;99.90
22635;DHT22;11484;50.858;4.384;2023-02-28T06:35:30;2.50;99.90
22635;DHT22;11484;50.858;4.384;2023-02-28T06:37:57;2.50;99.90
22635;DHT22;11484;50.858;4.384;2023-02-28T06:40:22;2.50;99.90
22635;DHT22;11484;50.858;4.384;2023-02-28T06:42:48;2.60;99.90
22635;DHT22;11484;50.858;4.384;2023-02-28T06:45:14;2.70;99.90
22635;DHT22;11484;50.858;4.384;2023-02-28T06:47:40;2.70;99.90
22635;DHT22;11484;50.858;4.384;2023-02-28T06:50:08;2.60;99.90
22635;DHT22;11484;50.858;4.384;2023-02-28T06:52:34;2.50;99.90
22635;DHT22;11484;50.858;4.384;2023-02-28T06:55:04;2.50;99.90
22635;DHT22;11484;50.858;4.384;2023-02-28T06:57:31;2.60;99.90
22635;DHT22;11484;50.858;4.384;2023-02-28T07:00:02;2.70;99.90
22635;DHT22;11484;50.858;4.384;2023-02-28T07:02:30;2.70;99.90
22635;DHT22;11484;50.858;4.384;2023-02-28T07:04:57;2.80;99.90
22635;DHT22;11484;50.858;4.384;2023-02-28T07:07:26;2.90;99.90
22635;DHT22;11484;50.858;4.384;2023-02-28T07:09:51;3.00;99.90
22635;DHT22;11484;50.858;4.384;2023-02-28T07:12:17;3.20;99.90
22635;DHT22;11484;50.858;4.384;2023-02-28T07:14:43;3.30;99.90
22635;DHT22;11484;50.858;4.384;2023-02-28T07:17:09;3.20;99.90
22635;DHT22;11484;50.858;4.384;2023-02-28T07:19:38;3.20;99.90
22635;DHT22;11484;50.858;4.384;2023-02-28T07:22:04;3.20;99.90
22635;DHT22;11484;50.858;4.384;2023-02-28T07:24:30;3.10;99.90
22635;DHT22;11484;50.858;4.384;2023-02-28T07:26:56;3.10;99.90
22635;DHT22;11484;50.858;4.384;2023-02-28T07:29:22;3.20;99.90
22635;DHT22;11484;50.858;4.384;2023-02-28T07:31:47;3.20;99.90
22635;DHT22;11484;50.858;4.384;2023-02-28T07:34:15;3.30;99.90
22635;DHT22;11484;50.858;4.384;2023-02-28T07:36:41;3.50;99.90
22635;DHT22;11484;50.858;4.384;2023-02-28T07:39:07;3.60;99.90
22635;DHT22;11484;50.858;4.384;2023-02-28T07:41:34;3.80;99.90
22635;DHT22;11484;50.858;4.384;2023-02-28T07:44:04;4.40;99.90
22635;DHT22;11484;50.858;4.384;2023-02-28T07:46:30;5.20;99.90
22635;DHT22;11484;50.858;4.384;2023-02-28T07:49:00;5.70;99.90
22635;DHT22;11484;50.858;4.384;2023-02-28T07:51:28;5.70;99.90
22635;DHT22;11484;50.858;4.384;2023-02-28T07:53:54;5.60;99.90
22635;DHT22;11484;50.858;4.384;2023-02-28T07:56:20;5.40;99.90
22635;DHT22;11484;50.858;4.384;2023-02-28T07:58:46;5.40;99.90
22635;DHT22;11484;50.858;4.384;2023-02-28T08:01:12;5.30;99.90
22635;DHT22;11484;50.858;4.384;2023-02-28T08:03:38;5.20;99.90
22635;DHT22;11484;50.858;4.384;2023-02-28T08:06:06;4.70;99.90
22635;DHT22;11484;50.858;4.384;2023-02-28T08:08:32;4.30;99.90
22635;DHT22;11484;50.858;4.384;2023-02-28T08:11:02;4.10;99.90
22635;DHT22;11484;50.858;4.384;2023-02-28T08:13:28;3.90;99.90
22635;DHT22;11484;50.858;4.384;2023-02-28T08:15:55;4.00;99.90
22635;DHT22;11484;50.858;4.384;2023-02-28T08:18:22;4.00;99.90
22635;DHT22;11484;50.858;4.384;2023-02-28T08:20:48;4.10;99.90
22635;DHT22;11484;50.858;4.384;2023-02-28T08:23:14;4.10;99.90
22635;DHT22;11484;50.858;4.384;2023-02-28T08:25:40;4.10;99.90
22635;DHT22;11484;50.858;4.384;2023-02-28T08:28:06;4.20;99.90
22635;DHT22;11484;50.858;4.384;2023-02-28T08:30:31;4.30;99.90
22635;DHT22;11484;50.858;4.384;2023-02-28T08:32:57;4.20;99.90
22635;DHT22;11484;50.858;4.384;2023-02-28T08:35:23;4.20;99.90
22635;DHT22;11484;50.858;4.384;2023-02-28T08:37:49;4.40;99.90
22635;DHT22;11484;50.858;4.384;2023-02-28T08:40:15;4.70;99.90
22635;DHT22;11484;50.858;4.384;2023-02-28T08:42:44;4.90;99.90
22635;DHT22;11484;50.858;4.384;2023-02-28T08:45:11;4.80;99.90
22635;DHT22;11484;50.858;4.384;2023-02-28T08:47:37;4.70;99.90
22635;DHT22;11484;50.858;4.384;2023-02-28T08:50:04;4.70;99.90
22635;DHT22;11484;50.858;4.384;2023-02-28T08:52:30;4.90;99.90
22635;DHT22;11484;50.858;4.384;2023-02-28T08:54:56;5.30;99.90
22635;DHT22;11484;50.858;4.384;2023-02-28T08:57:21;5.90;99.30
22635;DHT22;11484;50.858;4.384;2023-02-28T08:59:47;5.70;98.20
22635;DHT22;11484;50.858;4.384;2023-02-28T09:02:14;5.60;98.40
22635;DHT22;11484;50.858;4.384;2023-02-28T09:04:40;5.60;98.20
22635;DHT22;11484;50.858;4.384;2023-02-28T09:07:07;5.40;97.90
22635;DHT22;11484;50.858;4.384;2023-02-28T09:09:33;5.40;98.00
22635;DHT22;11484;50.858;4.384;2023-02-28T09:11:59;5.70;96.80
22635;DHT22;11484;50.858;4.384;2023-02-28T09:14:24;5.90;96.30
22635;DHT22;11484;50.858;4.384;2023-02-28T09:16:50;5.90;96.70
22635;DHT22;11484;50.858;4.384;2023-02-28T09:19:16;5.90;96.00
22635;DHT22;11484;50.858;4.384;2023-02-28T09:21:41;5.90;95.00
22635;DHT22;11484;50.858;4.384;2023-02-28T09:24:07;5.80;95.20
22635;DHT22;11484;50.858;4.384;2023-02-28T09:26:33;5.50;94.70
22635;DHT22;11484;50.858;4.384;2023-02-28T09:28:59;5.30;94.80
22635;DHT22;11484;50.858;4.384;2023-02-28T09:31:27;5.30;95.30
22635;DHT22;11484;50.858;4.384;2023-02-28T09:33:55;5.10;95.10
22635;DHT22;11484;50.858;4.384;2023-02-28T09:36:22;5.10;95.20
22635;DHT22;11484;50.858;4.384;2023-02-28T09:38:48;5.40;95.00
22635;DHT22;11484;50.858;4.384;2023-02-28T09:41:20;5.90;94.10
22635;DHT22;11484;50.858;4.384;2023-02-28T09:43:47;6.40;91.80
22635;DHT22;11484;50.858;4.384;2023-02-28T09:48:52;7.20;90.30
22635;DHT22;11484;50.858;4.384;2023-02-28T09:54:05;7.60;87.30
22635;DHT22;11484;50.858;4.384;2023-02-28T09:56:36;7.60;85.40
22635;DHT22;11484;50.858;4.384;2023-02-28T09:59:16;7.70;83.00
22635;DHT22;11484;50.858;4.384;2023-02-28T10:01:55;7.40;81.00
22635;DHT22;11484;50.858;4.384;2023-02-28T10:06:51;6.90;80.30
22635;DHT22;11484;50.858;4.384;2023-02-28T10:09:26;6.90;81.60
22635;DHT22;11484;50.858;4.384;2023-02-28T10:12:00;7.00;80.30
22635;DHT22;11484;50.858;4.384;2023-02-28T10:14:30;7.40;78.90
22635;DHT22;11484;50.858;4.384;2023-02-28T10:19:35;7.00;78.70
22635;DHT22;11484;50.858;4.384;2023-02-28T10:22:36;6.70;78.40
22635;DHT22;11484;50.858;4.384;2023-02-28T10:25:17;6.50;80.30
22635;DHT22;11484;50.858;4.384;2023-02-28T10:27:43;6.50;79.70
22635;DHT22;11484;50.858;4.384;2023-02-28T10:30:11;6.20;80.40
22635;DHT22;11484;50.858;4.384;2023-02-28T10:32:40;5.80;80.90
22635;DHT22;11484;50.858;4.384;2023-02-28T10:35:10;5.40;81.50
22635;DHT22;11484;50.858;4.384;2023-02-28T10:37:43;5.30;80.50
22635;DHT22;11484;50.858;4.384;2023-02-28T10:40:31;5.30;77.60
22635;DHT22;11484;50.858;4.384;2023-02-28T10:45:32;5.10;77.00
22635;DHT22;11484;50.858;4.384;2023-02-28T10:56:02;5.00;76.70
22635;DHT22;11484;50.858;4.384;2023-02-28T10:58:30;5.00;77.40
22635;DHT22;11484;50.858;4.384;2023-02-28T11:00:56;5.00;77.40
22635;DHT22;11484;50.858;4.384;2023-02-28T11:03:34;5.00;77.00
22635;DHT22;11484;50.858;4.384;2023-02-28T11:06:06;5.10;76.80
22635;DHT22;11484;50.858;4.384;2023-02-28T11:08:33;5.20;76.80
22635;DHT22;11484;50.858;4.384;2023-02-28T11:11:04;5.20;76.90
22635;DHT22;11484;50.858;4.384;2023-02-28T11:13:36;5.30;76.40
22635;DHT22;11484;50.858;4.384;2023-02-28T11:16:06;5.20;76.40
22635;DHT22;11484;50.858;4.384;2023-02-28T11:18:49;5.30;77.60
22635;DHT22;11484;50.858;4.384;2023-02-28T11:21:27;5.30;78.00
22635;DHT22;11484;50.858;4.384;2023-02-28T11:24:05;5.30;76.70
22635;DHT22;11484;50.858;4.384;2023-02-28T11:26:44;5.30;76.90
22635;DHT22;11484;50.858;4.384;2023-02-28T11:29:28;5.30;76.90
22635;DHT22;11484;50.858;4.384;2023-02-28T11:34:33;5.40;77.00
22635;DHT22;11484;50.858;4.384;2023-02-28T11:36:59;5.30;77.20
22635;DHT22;11484;50.858;4.384;2023-02-28T11:39:27;5.20;77.10
22635;DHT22;11484;50.858;4.384;2023-02-28T11:47:44;5.10;76.20
22635;DHT22;11484;50.858;4.384;2023-02-28T11:50:28;5.10;76.80
22635;DHT22;11484;50.858;4.384;2023-02-28T11:56:09;5.10;77.20
22635;DHT22;11484;50.858;4.384;2023-02-28T12:06:52;5.20;76.60
22635;DHT22;11484;50.858;4.384;2023-02-28T12:17:54;5.30;75.00
22635;DHT22;11484;50.858;4.384;2023-02-28T12:20:33;5.40;75.50
22635;DHT22;11484;50.858;4.384;2023-02-28T12:28:47;5.30;76.30
22635;DHT22;11484;50.858;4.384;2023-02-28T12:31:25;5.30;76.70
22635;DHT22;11484;50.858;4.384;2023-02-28T12:34:12;5.30;75.50
22635;DHT22;11484;50.858;4.384;2023-02-28T12:36:40;5.30;74.90
22635;DHT22;11484;50.858;4.384;2023-02-28T12:39:26;5.40;74.50
22635;DHT22;11484;50.858;4.384;2023-02-28T12:42:22;5.40;74.10
22635;DHT22;11484;50.858;4.384;2023-02-28T12:44:53;5.40;74.20
22635;DHT22;11484;50.858;4.384;2023-02-28T12:47:20;5.50;73.70
22635;DHT22;11484;50.858;4.384;2023-02-28T12:49:57;5.60;73.80
22635;DHT22;11484;50.858;4.384;2023-02-28T12:52:35;5.80;71.80
22635;DHT22;11484;50.858;4.384;2023-02-28T12:55:12;5.90;71.50
22635;DHT22;11484;50.858;4.384;2023-02-28T12:57:57;5.80;71.70
22635;DHT22;11484;50.858;4.384;2023-02-28T13:00:32;5.70;71.80
22635;DHT22;11484;50.858;4.384;2023-02-28T13:03:37;5.70;71.60
22635;DHT22;11484;50.858;4.384;2023-02-28T13:09:16;5.80;71.00
22635;DHT22;11484;50.858;4.384;2023-02-28T13:11:52;5.80;71.10
22635;DHT22;11484;50.858;4.384;2023-02-28T13:14:26;6.00;70.50
22635;DHT22;11484;50.858;4.384;2023-02-28T13:17:00;6.00;70.60
22635;DHT22;11484;50.858;4.384;2023-02-28T13:19:29;5.90;70.00
22635;DHT22;11484;50.858;4.384;2023-02-28T13:21:58;5.90;70.10
22635;DHT22;11484;50.858;4.384;2023-02-28T13:24:51;5.70;70.20
22635;DHT22;11484;50.858;4.384;2023-02-28T13:27:32;5.60;70.20
22635;DHT22;11484;50.858;4.384;2023-02-28T13:29:58;5.60;70.70
22635;DHT22;11484;50.858;4.384;2023-02-28T13:32:35;5.70;71.20
22635;DHT22;11484;50.858;4.384;2023-02-28T13:37:37;5.70;70.20
22635;DHT22;11484;50.858;4.384;2023-02-28T13:42:46;5.60;69.60
22635;DHT22;11484;50.858;4.384;2023-02-28T14:01:11;5.60;67.90
22635;DHT22;11484;50.858;4.384;2023-02-28T14:06:36;5.70;68.10
22635;DHT22;11484;50.858;4.384;2023-02-28T14:09:15;5.70;68.40
22635;DHT22;11484;50.858;4.384;2023-02-28T14:11:43;5.70;68.40
22635;DHT22;11484;50.858;4.384;2023-02-28T14:17:08;5.70;68.70
22635;DHT22;11484;50.858;4.384;2023-02-28T14:19:39;5.60;68.50
22635;DHT22;11484;50.858;4.384;2023-02-28T14:25:32;5.60;69.50
22635;DHT22;11484;50.858;4.384;2023-02-28T14:31:22;5.60;68.70
22635;DHT22;11484;50.858;4.384;2023-02-28T14:36:43;5.60;69.70
22635;DHT22;11484;50.858;4.384;2023-02-28T14:39:14;5.70;68.80
22635;DHT22;11484;50.858;4.384;2023-02-28T14:41:42;5.80;69.80
22635;DHT22;11484;50.858;4.384;2023-02-28T14:44:24;5.80;69.40
22635;DHT22;11484;50.858;4.384;2023-02-28T14:46:57;5.90;69.00
22635;DHT22;11484;50.858;4.384;2023-02-28T14:52:14;6.00;69.10
22635;DHT22;11484;50.858;4.384;2023-02-28T14:54:41;6.10;69.20
22635;DHT22;11484;50.858;4.384;2023-02-28T14:57:31;6.10;69.40
22635;DHT22;11484;50.858;4.384;2023-02-28T15:02:36;6.10;68.60
22635;DHT22;11484;50.858;4.384;2023-02-28T15:07:38;6.00;69.20
22635;DHT22;11484;50.858;4.384;2023-02-28T15:10:33;5.90;69.70
22635;DHT22;11484;50.858;4.384;2023-02-28T15:13:10;5.80;70.30
22635;DHT22;11484;50.858;4.384;2023-02-28T15:18:44;5.80;70.50
22635;DHT22;11484;50.858;4.384;2023-02-28T15:21:07;5.70;70.60
22635;DHT22;11484;50.858;4.384;2023-02-28T15:23:36;5.70;71.10
22635;DHT22;11484;50.858;4.384;2023-02-28T15:26:02;5.70;71.40
22635;DHT22;11484;50.858;4.384;2023-02-28T15:28:29;5.70;71.60
22635;DHT22;11484;50.858;4.384;2023-02-28T15:31:00;5.70;71.80
22635;DHT22;11484;50.858;4.384;2023-02-28T15:33:31;5.70;72.10
22635;DHT22;11484;50.858;4.384;2023-02-28T15:36:15;5.70;72.40
22635;DHT22;11484;50.858;4.384;2023-02-28T15:38:43;5.60;72.50
22635;DHT22;11484;50.858;4.384;2023-02-28T15:41:35;5.70;72.40
22635;DHT22;11484;50.858;4.384;2023-02-28T15:44:26;5.70;72.40
22635;DHT22;11484;50.858;4.384;2023-02-28T15:47:02;5.80;72.70
22635;DHT22;11484;50.858;4.384;2023-02-28T15:49:45;5.80;72.20
22635;DHT22;11484;50.858;4.384;2023-02-28T15:52:19;6.00;72.20
22635;DHT22;11484;50.858;4.384;2023-02-28T15:54:46;6.00;71.30
22635;DHT22;11484;50.858;4.384;2023-02-28T15:57:22;5.80;71.80
22635;DHT22;11484;50.858;4.384;2023-02-28T15:59:52;5.80;72.90
22635;DHT22;11484;50.858;4.384;2023-02-28T16:02:27;5.90;72.10
22635;DHT22;11484;50.858;4.384;2023-02-28T16:05:26;5.90;71.90
22635;DHT22;11484;50.858;4.384;2023-02-28T16:08:01;5.80;72.50
22635;DHT22;11484;50.858;4.384;2023-02-28T16:10:28;5.80;73.30
22635;DHT22;11484;50.858;4.384;2023-02-28T16:12:56;5.90;72.40
22635;DHT22;11484;50.858;4.384;2023-02-28T16:15:28;5.80;72.60
22635;DHT22;11484;50.858;4.384;2023-02-28T16:17:55;5.70;72.80
22635;DHT22;11484;50.858;4.384;2023-02-28T16:20:27;5.60;73.60
22635;DHT22;11484;50.858;4.384;2023-02-28T16:22:54;5.60;73.90
22635;DHT22;11484;50.858;4.384;2023-02-28T16:25:23;5.50;74.50
22635;DHT22;11484;50.858;4.384;2023-02-28T16:27:52;5.40;74.90
22635;DHT22;11484;50.858;4.384;2023-02-28T16:30:24;5.50;75.60
22635;DHT22;11484;50.858;4.384;2023-02-28T16:32:52;5.60;75.50
22635;DHT22;11484;50.858;4.384;2023-02-28T16:35:19;5.50;75.00
22635;DHT22;11484;50.858;4.384;2023-02-28T16:37:45;5.50;75.00
22635;DHT22;11484;50.858;4.384;2023-02-28T16:40:33;5.60;75.10
22635;DHT22;11484;50.858;4.384;2023-02-28T16:43:00;5.70;74.90
22635;DHT22;11484;50.858;4.384;2023-02-28T16:45:29;5.70;74.50
22635;DHT22;11484;50.858;4.384;2023-02-28T16:47:55;5.60;74.60
22635;DHT22;11484;50.858;4.384;2023-02-28T16:50:27;5.60;75.10
22635;DHT22;11484;50.858;4.384;2023-02-28T16:52:52;5.50;75.60
22635;DHT22;11484;50.858;4.384;2023-02-28T16:55:20;5.50;75.90
22635;DHT22;11484;50.858;4.384;2023-02-28T16:57:55;5.50;76.00
22635;DHT22;11484;50.858;4.384;2023-02-28T17:00:21;5.40;76.10
22635;DHT22;11484;50.858;4.384;2023-02-28T17:02:47;5.30;76.70
22635;DHT22;11484;50.858;4.384;2023-02-28T17:05:14;5.40;76.90
22635;DHT22;11484;50.858;4.384;2023-02-28T17:07:41;5.30;77.30
22635;DHT22;11484;50.858;4.384;2023-02-28T17:12:40;5.30;77.70
22635;DHT22;11484;50.858;4.384;2023-02-28T17:15:06;5.20;77.50
22635;DHT22;11484;50.858;4.384;2023-02-28T17:17:33;5.20;78.70
22635;DHT22;11484;50.858;4.384;2023-02-28T17:20:00;5.10;78.30
22635;DHT22;11484;50.858;4.384;2023-02-28T17:22:25;5.10;78.60
22635;DHT22;11484;50.858;4.384;2023-02-28T17:24:52;5.10;78.60
22635;DHT22;11484;50.858;4.384;2023-02-28T17:27:21;5.10;78.00
22635;DHT22;11484;50.858;4.384;2023-02-28T17:29:47;5.00;78.10
22635;DHT22;11484;50.858;4.384;2023-02-28T17:32:13;5.00;78.40
22635;DHT22;11484;50.858;4.384;2023-02-28T17:34:38;5.00;78.70
22635;DHT22;11484;50.858;4.384;2023-02-28T17:37:04;5.00;78.70
22635;DHT22;11484;50.858;4.384;2023-02-28T17:39:30;5.00;79.10
22635;DHT22;11484;50.858;4.384;2023-02-28T17:41:56;5.00;79.10
22635;DHT22;11484;50.858;4.384;2023-02-28T17:44:23;5.10;79.20
22635;DHT22;11484;50.858;4.384;2023-02-28T17:46:49;5.10;79.20
22635;DHT22;11484;50.858;4.384;2023-02-28T17:49:16;5.10;79.10
22635;DHT22;11484;50.858;4.384;2023-02-28T17:51:42;5.10;79.00
22635;DHT22;11484;50.858;4.384;2023-02-28T17:54:09;5.00;79.30
22635;DHT22;11484;50.858;4.384;2023-02-28T17:56:35;4.90;79.70
22635;DHT22;11484;50.858;4.384;2023-02-28T17:59:01;4.80;80.10
22635;DHT22;11484;50.858;4.384;2023-02-28T18:01:27;4.90;80.40
22635;DHT22;11484;50.858;4.384;2023-02-28T18:03:54;5.00;80.60
22635;DHT22;11484;50.858;4.384;2023-02-28T18:06:35;5.00;80.40
22635;DHT22;11484;50.858;4.384;2023-02-28T18:09:02;5.10;80.20
22635;DHT22;11484;50.858;4.384;2023-02-28T18:11:27;5.10;80.00
22635;DHT22;11484;50.858;4.384;2023-02-28T18:14:10;5.10;80.20
22635;DHT22;11484;50.858;4.384;2023-02-28T18:16:36;5.00;80.40
22635;DHT22;11484;50.858;4.384;2023-02-28T18:19:03;5.00;81.00
22635;DHT22;11484;50.858;4.384;2023-02-28T18:21:29;4.90;80.90
22635;DHT22;11484;50.858;4.384;2023-02-28T18:23:56;4.70;81.40
22635;DHT22;11484;50.858;4.384;2023-02-28T18:26:22;4.70;81.70